createdAt,value
2023-01-26T00:01:18.255Z,95217.06
2023-01-26T00:03:46.848Z,95209.56
2023-01-26T00:06:17.427Z,95200.19
2023-01-26T00:08:46.743Z,95201.69
2023-01-26T00:11:16.275Z,95195.88
2023-01-26T00:13:44.172Z,95205.19
2023-01-26T00:16:14.666Z,95185.50
2023-01-26T00:18:43.278Z,95188.16
2023-01-26T00:21:14.648Z,95182.50
2023-01-26T00:23:42.287Z,95182.16
2023-01-26T00:26:11.394Z,95169.78
2023-01-26T00:28:39.079Z,95171.78
2023-01-26T00:31:08.318Z,95179.13
2023-01-26T00:33:37.322Z,95172.13
2023-01-26T00:36:05.515Z,95177.13
2023-01-26T00:38:33.173Z,95174.81
2023-01-26T00:41:00.837Z,95176.28
2023-01-26T00:43:34.460Z,95174.16
2023-01-26T00:46:02.085Z,95175.47
2023-01-26T00:48:29.723Z,95179.81
2023-01-26T00:50:58.734Z,95171.09
2023-01-26T00:53:26.462Z,95172.16
2023-01-26T00:55:55.973Z,95176.28
2023-01-26T00:58:23.584Z,95172.31
2023-01-26T01:00:51.184Z,95170.28
2023-01-26T01:03:18.821Z,95170.47
2023-01-26T01:05:46.423Z,95169.63
2023-01-26T01:08:15.448Z,95169.47
2023-01-26T01:10:43.067Z,95162.94
2023-01-26T01:13:10.753Z,95162.59
2023-01-26T01:15:39.748Z,95156.75
2023-01-26T01:18:07.425Z,95161.13
2023-01-26T01:20:35.048Z,95162.94
2023-01-26T01:23:02.689Z,95161.44
2023-01-26T01:25:31.617Z,95167.78
2023-01-26T01:27:59.170Z,95163.44
2023-01-26T01:30:26.811Z,95163.44
2023-01-26T01:32:54.431Z,95164.63
2023-01-26T01:35:22.072Z,95164.28
2023-01-26T01:37:49.680Z,95162.97
2023-01-26T01:40:17.318Z,95155.44
2023-01-26T01:42:49.956Z,95157.09
2023-01-26T01:45:38.283Z,95147.09
2023-01-26T01:48:07.928Z,95153.59
2023-01-26T01:50:38.626Z,95161.13
2023-01-26T01:53:07.690Z,95152.44
2023-01-26T01:55:35.721Z,95144.56
2023-01-26T01:58:05.224Z,95139.41
2023-01-26T02:00:32.866Z,95142.06
2023-01-26T02:03:15.051Z,95143.38
2023-01-26T02:05:44.477Z,95146.41
2023-01-26T02:08:13.316Z,95143.44
2023-01-26T02:10:40.107Z,95142.94
2023-01-26T02:13:09.497Z,95138.41
2023-01-26T02:15:37.305Z,95137.41
2023-01-26T02:18:06.339Z,95134.91
2023-01-26T02:20:38.242Z,95129.03
2023-01-26T02:23:09.632Z,95129.22
2023-01-26T02:25:42.605Z,95124.06
2023-01-26T02:28:11.595Z,95122.91
2023-01-26T02:30:39.345Z,95122.69
2023-01-26T02:33:08.416Z,95118.34
2023-01-26T02:35:36.000Z,95111.34
2023-01-26T02:38:03.600Z,95111.34
2023-01-26T02:40:37.375Z,95108.34
2023-01-26T02:43:04.159Z,95099.34
2023-01-26T02:45:34.132Z,95096.84
2023-01-26T02:48:04.699Z,95100.69
2023-01-26T02:50:31.450Z,95095.66
2023-01-26T02:52:59.112Z,95089.16
2023-01-26T02:55:26.465Z,95078.66
2023-01-26T02:57:55.253Z,95087.50
2023-01-26T03:00:24.836Z,95082.53
2023-01-26T03:02:55.256Z,95073.00
2023-01-26T03:05:22.900Z,95068.66
2023-01-26T03:07:50.651Z,95071.63
2023-01-26T03:10:18.544Z,95070.47
2023-01-26T03:12:46.592Z,95062.28
2023-01-26T03:15:28.162Z,95057.09
2023-01-26T03:18:36.581Z,95061.31
2023-01-26T03:21:23.625Z,95056.66
2023-01-26T03:24:09.215Z,95059.66
2023-01-26T03:26:54.897Z,95066.66
2023-01-26T03:29:23.012Z,95055.59
2023-01-26T03:31:50.783Z,95060.59
2023-01-26T03:34:20.511Z,95065.94
2023-01-26T03:36:48.228Z,95063.59
2023-01-26T03:39:30.135Z,95064.94
2023-01-26T03:42:15.220Z,95066.94
2023-01-26T03:45:00.553Z,95065.09
2023-01-26T03:47:45.789Z,95069.63
2023-01-26T03:50:32.526Z,95064.78
2023-01-26T03:53:18.078Z,95066.09
2023-01-26T03:56:03.375Z,95061.97
2023-01-26T03:58:33.789Z,95062.78
2023-01-26T04:01:01.463Z,95062.28
2023-01-26T04:03:46.643Z,95067.00
2023-01-26T04:06:33.384Z,95051.66
2023-01-26T04:09:01.046Z,95056.78
2023-01-26T04:11:28.681Z,95053.06
2023-01-26T04:14:13.908Z,95044.25
2023-01-26T04:16:59.428Z,95045.91
2023-01-26T04:19:44.654Z,95045.25
2023-01-26T04:22:15.060Z,95034.88
2023-01-26T04:24:42.720Z,95036.88
2023-01-26T04:27:11.710Z,95037.41
2023-01-26T04:29:39.414Z,95039.91
2023-01-26T04:32:07.063Z,95023.50
2023-01-26T04:34:34.769Z,95033.38
2023-01-26T04:37:02.419Z,95035.41
2023-01-26T04:39:31.457Z,95036.88
2023-01-26T04:41:59.076Z,95028.19
2023-01-26T04:44:26.745Z,95027.19
2023-01-26T04:46:54.401Z,95030.88
2023-01-26T04:49:22.180Z,95027.91
2023-01-26T04:51:49.858Z,95028.25
2023-01-26T04:54:17.550Z,95024.25
2023-01-26T04:56:46.696Z,95024.75
2023-01-26T04:59:15.154Z,95031.03
2023-01-26T05:01:42.993Z,95024.06
2023-01-26T05:04:12.766Z,95032.25
2023-01-26T05:06:42.077Z,95041.56
2023-01-26T05:09:09.908Z,95033.72
2023-01-26T05:11:37.590Z,95043.91
2023-01-26T05:14:06.798Z,95041.06
2023-01-26T05:16:34.907Z,95043.25
2023-01-26T05:19:03.062Z,95046.44
2023-01-26T05:21:30.700Z,95047.66
2023-01-26T05:23:58.359Z,95045.47
2023-01-26T05:26:26.190Z,95049.63
2023-01-26T05:28:53.845Z,95043.78
2023-01-26T05:31:22.898Z,95044.78
2023-01-26T05:33:50.629Z,95040.31
2023-01-26T05:36:18.212Z,95035.28
2023-01-26T05:38:45.857Z,95036.59
2023-01-26T05:41:13.463Z,95034.22
2023-01-26T05:43:41.129Z,95035.25
2023-01-26T05:46:08.822Z,95041.25
2023-01-26T05:48:37.791Z,95039.56
2023-01-26T05:51:05.613Z,95044.25
2023-01-26T05:53:33.265Z,95040.28
2023-01-26T05:56:00.931Z,95044.09
2023-01-26T05:58:28.589Z,95043.09
2023-01-26T06:00:56.303Z,95044.72
2023-01-26T06:03:24.026Z,95046.72
2023-01-26T06:05:56.609Z,95043.53
2023-01-26T06:08:24.236Z,95052.06
2023-01-26T06:10:51.968Z,95044.53
2023-01-26T06:13:19.633Z,95049.03
2023-01-26T06:15:47.242Z,95039.19
2023-01-26T06:18:14.936Z,95038.50
2023-01-26T06:20:44.276Z,95041.50
2023-01-26T06:23:13.784Z,95049.88
2023-01-26T06:25:41.444Z,95051.56
2023-01-26T06:28:09.349Z,95049.41
2023-01-26T06:30:37.145Z,95046.56
2023-01-26T06:33:06.921Z,95054.25
2023-01-26T06:35:36.010Z,95055.56
2023-01-26T06:38:03.859Z,95049.53
2023-01-26T06:40:32.843Z,95052.06
2023-01-26T06:43:00.459Z,95052.41
2023-01-26T06:45:28.120Z,95054.25
2023-01-26T06:47:55.820Z,95047.56
2023-01-26T06:50:26.531Z,95049.25
2023-01-26T06:52:56.756Z,95042.94
2023-01-26T06:55:29.509Z,95046.09
2023-01-26T06:57:58.474Z,95044.25
2023-01-26T07:00:26.180Z,95042.22
2023-01-26T07:02:53.810Z,95037.00
2023-01-26T07:05:21.448Z,95037.31
2023-01-26T07:07:49.119Z,95032.50
2023-01-26T07:10:17.067Z,95034.13
2023-01-26T07:12:46.703Z,95030.31
2023-01-26T07:15:15.724Z,95027.28
2023-01-26T07:17:43.350Z,95037.84
2023-01-26T07:20:12.962Z,95045.84
2023-01-26T07:22:40.681Z,95047.66
2023-01-26T07:25:08.913Z,95045.47
2023-01-26T07:27:36.507Z,95040.47
2023-01-26T07:30:04.750Z,95038.28
2023-01-26T07:32:33.963Z,95037.25
2023-01-26T07:35:01.569Z,95036.94
2023-01-26T07:37:29.245Z,95034.75
2023-01-26T07:39:56.943Z,95033.75
2023-01-26T07:42:24.541Z,95031.25
2023-01-26T07:44:52.354Z,95024.22
2023-01-26T07:47:20.564Z,95027.13
2023-01-26T07:49:49.592Z,95027.75
2023-01-26T07:52:17.217Z,95018.06
2023-01-26T07:54:44.788Z,95025.78
2023-01-26T07:57:13.222Z,95025.78
2023-01-26T07:59:40.835Z,95019.25
2023-01-26T08:02:10.523Z,95027.16
2023-01-26T08:04:40.026Z,95023.44
2023-01-26T08:07:08.986Z,95018.75
2023-01-26T08:09:37.013Z,95024.09
2023-01-26T08:12:05.326Z,95023.75
2023-01-26T08:14:45.871Z,95019.09
2023-01-26T08:17:16.134Z,95014.41
2023-01-26T08:19:43.803Z,95018.41
2023-01-26T08:22:12.806Z,95006.91
2023-01-26T08:24:40.477Z,95009.59
2023-01-26T08:27:08.124Z,95011.09
2023-01-26T08:29:35.764Z,95007.25
2023-01-26T08:32:03.982Z,95004.06
2023-01-26T08:34:31.756Z,94998.34
2023-01-26T08:36:59.461Z,95007.38
2023-01-26T08:39:28.489Z,94992.53
2023-01-26T08:41:56.115Z,94998.53
2023-01-26T08:44:23.790Z,95000.00
2023-01-26T08:46:51.440Z,95011.06
2023-01-26T08:49:19.058Z,95010.03
2023-01-26T08:51:46.716Z,95003.22
2023-01-26T08:54:14.383Z,95000.00
2023-01-26T08:56:43.330Z,95007.19
2023-01-26T08:59:10.984Z,94997.72
2023-01-26T09:01:38.669Z,95000.69
2023-01-26T09:04:06.529Z,95003.34
2023-01-26T09:06:34.141Z,94997.16
2023-01-26T09:09:01.779Z,94995.50
2023-01-26T09:11:29.404Z,94998.66
2023-01-26T09:13:58.442Z,95001.63
2023-01-26T09:16:26.398Z,95002.13
2023-01-26T09:18:55.144Z,94999.44
2023-01-26T09:21:24.052Z,95003.09
2023-01-26T09:23:51.725Z,95006.28
2023-01-26T09:26:19.413Z,95006.63
2023-01-26T09:28:51.303Z,95010.00
2023-01-26T09:31:20.456Z,95011.50
2023-01-26T09:33:49.214Z,95006.47
2023-01-26T09:36:17.263Z,95023.31
2023-01-26T09:38:44.946Z,95015.31
2023-01-26T09:41:23.902Z,95022.97
2023-01-26T09:43:52.771Z,95015.25
2023-01-26T09:46:25.384Z,95018.28
2023-01-26T09:49:05.919Z,95011.81
2023-01-26T09:51:36.351Z,95001.47
2023-01-26T09:54:07.411Z,95008.53
2023-01-26T09:56:35.195Z,95008.31
2023-01-26T09:59:07.665Z,95004.47
2023-01-26T10:01:40.210Z,95002.06
2023-01-26T10:04:14.575Z,95007.78
2023-01-26T10:06:42.590Z,95008.19
2023-01-26T10:09:15.951Z,94998.66
2023-01-26T10:11:46.166Z,94992.44
2023-01-26T10:14:16.115Z,94998.66
2023-01-26T10:16:48.597Z,94988.88
2023-01-26T10:19:21.929Z,94996.91
2023-01-26T10:21:51.639Z,95003.41
2023-01-26T10:24:23.175Z,94998.03
2023-01-26T10:26:51.996Z,94993.84
2023-01-26T10:29:20.647Z,94992.50
2023-01-26T10:31:49.692Z,94987.19
2023-01-26T10:34:18.864Z,94994.41
2023-01-26T10:36:47.313Z,94984.56
2023-01-26T10:39:16.352Z,94990.72
2023-01-26T10:41:57.916Z,94994.25
2023-01-26T10:44:32.677Z,94995.56
2023-01-26T10:47:07.000Z,94992.88
2023-01-26T10:49:34.904Z,94991.34
2023-01-26T10:52:16.120Z,94982.47
2023-01-26T10:54:44.756Z,94977.69
2023-01-26T10:57:18.956Z,94979.25
2023-01-26T10:59:51.941Z,94984.91
2023-01-26T11:02:24.542Z,94989.06
2023-01-26T11:05:16.880Z,94981.16
2023-01-26T11:07:44.698Z,94981.97
2023-01-26T11:10:27.361Z,94975.94
2023-01-26T11:13:09.417Z,94972.06
2023-01-26T11:15:39.269Z,94972.44
2023-01-26T11:18:17.535Z,94975.25
2023-01-26T11:20:49.142Z,94968.38
2023-01-26T11:23:24.732Z,94964.34
2023-01-26T11:26:09.370Z,94957.84
2023-01-26T11:28:45.378Z,94964.59
2023-01-26T11:31:18.186Z,94959.22
2023-01-26T11:33:54.865Z,94965.94
2023-01-26T11:36:29.501Z,94967.28
2023-01-26T11:39:04.215Z,94969.00
2023-01-26T11:41:42.094Z,94971.06
2023-01-26T11:44:21.874Z,94973.00
2023-01-26T11:47:03.987Z,94959.34
2023-01-26T11:49:44.659Z,94956.84
2023-01-26T11:52:19.148Z,94962.03
2023-01-26T11:55:03.415Z,94965.69
2023-01-26T11:57:37.403Z,94964.81
2023-01-26T12:00:20.759Z,94963.25
2023-01-26T12:03:01.019Z,94959.69
2023-01-26T12:05:32.642Z,94961.38
2023-01-26T12:08:03.356Z,94948.59
2023-01-26T12:10:33.955Z,94944.25
2023-01-26T12:13:06.935Z,94947.56
2023-01-26T12:15:36.003Z,94951.91
2023-01-26T12:18:08.925Z,94942.09
2023-01-26T12:20:40.695Z,94940.94
2023-01-26T12:23:14.897Z,94942.66
2023-01-26T12:25:43.574Z,94938.00
2023-01-26T12:28:20.705Z,94939.47
2023-01-26T12:30:52.920Z,94935.31
2023-01-26T12:33:20.883Z,94933.78
2023-01-26T12:36:01.576Z,94939.47
2023-01-26T12:38:44.215Z,94931.41
2023-01-26T12:41:15.367Z,94931.53
2023-01-26T12:43:56.263Z,94925.84
2023-01-26T12:46:25.569Z,94921.97
2023-01-26T12:48:54.843Z,94928.53
2023-01-26T12:51:27.037Z,94931.69
2023-01-26T12:53:59.529Z,94932.63
2023-01-26T12:56:30.207Z,94933.38
2023-01-26T12:58:58.749Z,94932.38
2023-01-26T13:01:29.039Z,94924.53
2023-01-26T13:03:58.519Z,94929.72
2023-01-26T13:06:28.584Z,94926.69
2023-01-26T13:09:06.015Z,94928.00
2023-01-26T13:11:58.948Z,94926.03
2023-01-26T13:14:35.679Z,94926.69
2023-01-26T13:17:54.844Z,94926.50
2023-01-26T13:20:44.875Z,94924.38
2023-01-26T13:23:40.149Z,94918.84
2023-01-26T13:26:18.314Z,94920.16
2023-01-26T13:28:47.044Z,94925.63
2023-01-26T13:31:15.118Z,94912.56
2023-01-26T13:33:44.697Z,94924.56
2023-01-26T13:36:16.051Z,94915.38
2023-01-26T13:38:49.154Z,94915.66
2023-01-26T13:41:19.343Z,94911.16
2023-01-26T13:43:50.785Z,94912.16
2023-01-26T13:46:24.066Z,94910.66
2023-01-26T13:48:53.033Z,94910.91
2023-01-26T13:51:23.457Z,94909.91
2023-01-26T13:54:04.565Z,94911.94
2023-01-26T13:56:33.770Z,94912.31
2023-01-26T13:59:12.782Z,94921.00
2023-01-26T14:01:45.119Z,94919.19
2023-01-26T14:04:20.106Z,94919.19
2023-01-26T14:06:51.171Z,94918.34
2023-01-26T14:09:20.393Z,94911.28
2023-01-26T14:11:56.354Z,94918.63
2023-01-26T14:14:26.323Z,94919.09
2023-01-26T14:16:54.213Z,94917.91
2023-01-26T14:19:23.576Z,94908.22
2023-01-26T14:21:53.383Z,94916.72
2023-01-26T14:24:27.344Z,94914.47
2023-01-26T14:26:55.288Z,94912.44
2023-01-26T14:29:25.293Z,94915.94
2023-01-26T14:31:54.032Z,94919.75
2023-01-26T14:34:24.353Z,94922.06
2023-01-26T14:37:06.959Z,94916.75
2023-01-26T14:39:35.922Z,94920.28
2023-01-26T14:42:04.182Z,94919.94
2023-01-26T14:44:31.793Z,94917.28
2023-01-26T14:47:02.943Z,94919.94
2023-01-26T14:49:45.449Z,94923.13
2023-01-26T14:52:18.595Z,94917.97
2023-01-26T14:54:50.208Z,94929.78
2023-01-26T14:57:19.814Z,94928.13
2023-01-26T14:59:50.091Z,94917.28
2023-01-26T15:02:20.263Z,94910.53
2023-01-26T15:04:53.051Z,94911.19
2023-01-26T15:07:33.315Z,94914.22
2023-01-26T15:10:03.229Z,94914.22
2023-01-26T15:12:35.047Z,94913.91
2023-01-26T15:15:03.220Z,94907.22
2023-01-26T15:17:32.139Z,94905.56
2023-01-26T15:19:59.813Z,94905.44
2023-01-26T15:22:27.744Z,94905.91
2023-01-26T15:25:17.959Z,94912.97
2023-01-26T15:27:50.718Z,94921.50
2023-01-26T15:30:19.330Z,94918.97
2023-01-26T15:32:46.925Z,94921.16
2023-01-26T15:35:23.312Z,94925.25
2023-01-26T15:38:00.405Z,94928.44
2023-01-26T15:40:29.921Z,94923.97
2023-01-26T15:43:12.713Z,94922.84
2023-01-26T15:45:40.908Z,94939.19
2023-01-26T15:48:08.552Z,94933.63
2023-01-26T15:50:36.335Z,94933.94
2023-01-26T15:53:03.967Z,94936.97
2023-01-26T15:55:33.999Z,94936.13
2023-01-26T15:58:01.787Z,94939.47
2023-01-26T16:00:29.408Z,94934.94
2023-01-26T16:02:57.083Z,94940.13
2023-01-26T16:05:25.753Z,94930.44
2023-01-26T16:07:53.557Z,94938.94
2023-01-26T16:10:21.287Z,94933.09
2023-01-26T16:12:51.220Z,94938.78
2023-01-26T16:15:28.218Z,94938.78
2023-01-26T16:17:55.849Z,94938.78
2023-01-26T16:20:23.639Z,94937.44
2023-01-26T16:22:51.277Z,94938.16
2023-01-26T16:25:24.201Z,94935.78
2023-01-26T16:27:54.674Z,94935.50
2023-01-26T16:30:23.116Z,94936.19
2023-01-26T16:32:51.077Z,94933.38
2023-01-26T16:35:21.387Z,94939.31
2023-01-26T16:37:49.201Z,94939.13
2023-01-26T16:40:19.168Z,94940.84
2023-01-26T16:42:49.158Z,94949.22
2023-01-26T16:45:20.088Z,94948.19
2023-01-26T16:47:49.833Z,94945.16
2023-01-26T16:50:17.803Z,94946.31
2023-01-26T16:52:45.374Z,94944.75
2023-01-26T16:55:15.944Z,94937.72
2023-01-26T16:57:45.594Z,94941.06
2023-01-26T17:00:16.095Z,94948.41
2023-01-26T17:02:47.701Z,94951.06
2023-01-26T17:05:16.348Z,94942.06
2023-01-26T17:07:44.050Z,94939.38
2023-01-26T17:10:12.786Z,94945.91
2023-01-26T17:12:40.501Z,94946.06
2023-01-26T17:15:10.931Z,94930.59
2023-01-26T17:17:38.815Z,94942.09
2023-01-26T17:20:18.521Z,94940.94
2023-01-26T17:22:47.366Z,94943.72
2023-01-26T17:25:16.897Z,94937.00
2023-01-26T17:27:45.009Z,94936.03
2023-01-26T17:30:13.113Z,94940.81
2023-01-26T17:32:40.781Z,94943.72
2023-01-26T17:35:10.358Z,94938.69
2023-01-26T17:37:39.393Z,94940.63
2023-01-26T17:40:08.754Z,94941.78
2023-01-26T17:42:36.466Z,94935.25
2023-01-26T17:45:05.017Z,94938.94
2023-01-26T17:47:34.200Z,94941.44
2023-01-26T17:50:01.899Z,94947.97
2023-01-26T17:52:35.423Z,94949.00
2023-01-26T17:55:06.374Z,94943.34
2023-01-26T17:57:34.442Z,94947.56
2023-01-26T18:00:02.205Z,94939.56
2023-01-26T18:02:30.102Z,94938.78
2023-01-26T18:04:58.104Z,94941.03
2023-01-26T18:07:26.303Z,94940.16
2023-01-26T18:09:55.408Z,94947.16
2023-01-26T18:12:23.086Z,94936.78
2023-01-26T18:14:50.817Z,94930.63
2023-01-26T18:17:18.547Z,94932.81
2023-01-26T18:19:46.196Z,94939.13
2023-01-26T18:22:13.950Z,94935.06
2023-01-26T18:24:41.515Z,94945.06
2023-01-26T18:27:10.466Z,94943.72
2023-01-26T18:29:38.163Z,94945.91
2023-01-26T18:32:06.346Z,94942.78
2023-01-26T18:34:34.029Z,94948.00
2023-01-26T18:37:01.639Z,94942.56
2023-01-26T18:39:30.079Z,94935.88
2023-01-26T18:41:57.821Z,94939.94
2023-01-26T18:44:27.396Z,94946.75
2023-01-26T18:46:55.364Z,94943.72
2023-01-26T18:49:23.000Z,94944.91
2023-01-26T18:51:51.731Z,94944.72
2023-01-26T18:54:20.115Z,94948.03
2023-01-26T18:56:48.324Z,94951.91
2023-01-26T18:59:16.972Z,94943.72
2023-01-26T19:01:46.060Z,94947.59
2023-01-26T19:04:14.194Z,94946.25
2023-01-26T19:06:42.851Z,94944.41
2023-01-26T19:09:11.770Z,94947.41
2023-01-26T19:11:40.040Z,94945.88
2023-01-26T19:14:08.581Z,94942.84
2023-01-26T19:16:39.239Z,94942.81
2023-01-26T19:19:08.332Z,94936.13
2023-01-26T19:21:35.940Z,94933.78
2023-01-26T19:24:06.036Z,94935.06
2023-01-26T19:26:34.128Z,94931.88
2023-01-26T19:29:02.271Z,94933.03
2023-01-26T19:31:30.762Z,94931.84
2023-01-26T19:34:00.096Z,94930.00
2023-01-26T19:36:30.872Z,94937.72
2023-01-26T19:38:58.808Z,94932.53
2023-01-26T19:41:26.905Z,94934.03
2023-01-26T19:43:54.841Z,94931.75
2023-01-26T19:46:22.634Z,94934.28
2023-01-26T19:48:50.345Z,94927.47
2023-01-26T19:51:22.632Z,94939.59
2023-01-26T19:53:55.095Z,94942.22
2023-01-26T19:56:24.715Z,94939.03
2023-01-26T19:58:54.120Z,94940.34
2023-01-26T20:01:22.713Z,94938.19
2023-01-26T20:03:50.807Z,94941.59
2023-01-26T20:06:20.893Z,94941.41
2023-01-26T20:08:49.098Z,94943.72
2023-01-26T20:11:19.785Z,94938.94
2023-01-26T20:13:47.458Z,94938.63
2023-01-26T20:16:15.134Z,94943.00
2023-01-26T20:18:42.793Z,94938.16
2023-01-26T20:21:10.535Z,94935.44
2023-01-26T20:23:45.580Z,94932.41
2023-01-26T20:26:27.390Z,94931.25
2023-01-26T20:28:58.255Z,94936.41
2023-01-26T20:31:27.293Z,94939.72
2023-01-26T20:33:55.608Z,94932.41
2023-01-26T20:36:27.138Z,94930.09
2023-01-26T20:38:55.481Z,94927.59
2023-01-26T20:41:27.230Z,94936.75
2023-01-26T20:44:19.491Z,94933.38
2023-01-26T20:46:47.840Z,94931.03
2023-01-26T20:49:18.534Z,94925.16
2023-01-26T20:51:47.019Z,94931.97
2023-01-26T20:54:16.583Z,94926.88
2023-01-26T20:56:46.744Z,94925.94
2023-01-26T20:59:14.586Z,94919.81
2023-01-26T21:01:42.267Z,94925.28
2023-01-26T21:04:09.877Z,94916.75
2023-01-26T21:06:38.872Z,94927.38
2023-01-26T21:09:12.515Z,94922.53
2023-01-26T21:11:40.648Z,94911.97
2023-01-26T21:14:12.823Z,94911.59
2023-01-26T21:16:42.882Z,94918.00
2023-01-26T21:19:10.973Z,94909.69
2023-01-26T21:21:38.855Z,94915.84
2023-01-26T21:24:07.406Z,94917.06
2023-01-26T21:26:35.204Z,94909.81
2023-01-26T21:29:02.985Z,94914.97
2023-01-26T21:31:33.064Z,94917.44
2023-01-26T21:34:01.432Z,94921.72
2023-01-26T21:36:30.728Z,94918.34
2023-01-26T21:39:02.316Z,94906.31
2023-01-26T21:41:48.761Z,94914.38
2023-01-26T21:44:17.897Z,94912.19
2023-01-26T21:46:47.829Z,94914.69
2023-01-26T21:49:15.814Z,94911.34
2023-01-26T21:52:06.444Z,94912.19
2023-01-26T21:54:36.694Z,94907.03
2023-01-26T21:57:25.876Z,94899.66
2023-01-26T21:59:52.814Z,94900.31
2023-01-26T22:02:22.122Z,94905.66
2023-01-26T22:04:50.013Z,94908.63
2023-01-26T22:07:17.695Z,94908.09
2023-01-26T22:09:45.467Z,94910.59
2023-01-26T22:12:13.089Z,94900.91
2023-01-26T22:14:40.895Z,94908.28
2023-01-26T22:17:09.098Z,94906.25
2023-01-26T22:19:38.742Z,94909.59
2023-01-26T22:22:06.446Z,94908.28
2023-01-26T22:24:34.212Z,94903.44
2023-01-26T22:27:01.969Z,94901.47
2023-01-26T22:29:29.650Z,94901.75
2023-01-26T22:31:57.388Z,94903.91
2023-01-26T22:34:25.200Z,94908.22
2023-01-26T22:36:54.235Z,94894.03
2023-01-26T22:39:22.036Z,94899.25
2023-01-26T22:41:49.635Z,94894.25
2023-01-26T22:44:17.320Z,94897.94
2023-01-26T22:46:44.938Z,94899.78
2023-01-26T22:49:12.666Z,94895.09
2023-01-26T22:51:41.201Z,94889.91
2023-01-26T22:54:10.759Z,94886.59
2023-01-26T22:56:38.396Z,94894.97
2023-01-26T22:59:06.151Z,94889.63
2023-01-26T23:01:34.283Z,94893.31
2023-01-26T23:04:02.539Z,94894.13
2023-01-26T23:06:30.338Z,94902.31
2023-01-26T23:09:01.019Z,94896.00
2023-01-26T23:11:30.722Z,94888.97
2023-01-26T23:13:59.373Z,94889.97
2023-01-26T23:16:27.861Z,94889.97
2023-01-26T23:18:57.260Z,94881.31
2023-01-26T23:21:25.628Z,94873.13
2023-01-26T23:23:53.622Z,94875.31
2023-01-26T23:26:21.739Z,94873.16
2023-01-26T23:28:50.806Z,94884.69
2023-01-26T23:31:19.314Z,94878.31
2023-01-26T23:33:47.115Z,94882.34
2023-01-26T23:36:15.420Z,94884.63
2023-01-26T23:38:44.280Z,94885.94
2023-01-26T23:41:12.191Z,94887.50
2023-01-26T23:43:39.965Z,94870.63
2023-01-26T23:46:09.969Z,94873.94
2023-01-26T23:48:37.704Z,94876.59
2023-01-26T23:51:07.294Z,94871.94
2023-01-26T23:53:35.612Z,94877.59
2023-01-26T23:56:07.574Z,94869.75
2023-01-26T23:58:35.137Z,94866.25
